createdAt,value
2018-04-26T00:01:20.125Z,63.03
2018-04-26T00:03:46.569Z,64.11
2018-04-26T00:06:12.908Z,63.55
2018-04-26T00:08:39.408Z,62.93
2018-04-26T00:11:05.655Z,62.99
2018-04-26T00:13:32.140Z,62.90
2018-04-26T00:15:58.416Z,63.22
2018-04-26T00:18:24.647Z,63.38
2018-04-26T00:20:51.252Z,63.08
2018-04-26T00:23:17.782Z,63.25
2018-04-26T00:25:44.103Z,63.60
2018-04-26T00:28:10.636Z,63.77
2018-04-26T00:30:37.038Z,63.35
2018-04-26T00:33:03.356Z,63.66
2018-04-26T00:35:29.742Z,64.08
2018-04-26T00:37:56.048Z,64.36
2018-04-26T00:40:22.590Z,64.19
2018-04-26T00:42:48.907Z,64.65
2018-04-26T00:45:15.450Z,64.82
2018-04-26T00:47:41.803Z,65.32
2018-04-26T00:50:08.204Z,65.69
2018-04-26T00:52:34.544Z,65.11
2018-04-26T00:55:00.812Z,64.55
2018-04-26T00:57:27.336Z,64.42
2018-04-26T00:59:53.623Z,64.46
2018-04-26T01:02:19.888Z,64.39
2018-04-26T01:04:46.776Z,64.42
2018-04-26T01:07:13.228Z,64.44
2018-04-26T01:09:39.569Z,64.93
2018-04-26T01:12:06.147Z,64.92
2018-04-26T01:14:32.420Z,65.45
2018-04-26T01:16:58.960Z,65.85
2018-04-26T01:19:25.308Z,66.03
2018-04-26T01:21:52.523Z,65.94
2018-04-26T01:24:19.053Z,65.59
2018-04-26T01:26:45.404Z,65.86
2018-04-26T01:29:11.800Z,66.14
2018-04-26T01:31:38.287Z,65.95
2018-04-26T01:34:04.585Z,65.85
2018-04-26T01:36:43.050Z,65.94
2018-04-26T01:39:09.535Z,65.77
2018-04-26T01:41:35.787Z,65.35
2018-04-26T01:44:02.149Z,65.43
2018-04-26T01:46:29.375Z,65.08
2018-04-26T01:48:55.636Z,65.18
2018-04-26T01:51:21.980Z,65.08
2018-04-26T01:53:48.328Z,65.33
2018-04-26T01:56:14.793Z,65.60
2018-04-26T01:58:41.073Z,65.88
2018-04-26T02:01:07.641Z,65.84
2018-04-26T02:03:33.946Z,65.90
2018-04-26T02:06:00.492Z,65.95
2018-04-26T02:08:27.639Z,65.86
2018-04-26T02:10:54.060Z,65.69
2018-04-26T02:13:20.472Z,65.64
2018-04-26T02:15:47.336Z,65.86
2018-04-26T02:18:13.603Z,65.92
2018-04-26T02:20:39.969Z,66.04
2018-04-26T02:23:06.576Z,65.76
2018-04-26T02:25:32.855Z,65.88
2018-04-26T02:27:59.132Z,66.01
2018-04-26T02:30:25.757Z,65.85
2018-04-26T02:32:52.019Z,65.92
2018-04-26T02:35:18.416Z,65.97
2018-04-26T02:37:44.699Z,66.11
2018-04-26T02:40:11.228Z,65.92
2018-04-26T02:45:02.296Z,65.64
2018-04-26T02:47:28.556Z,65.63
2018-04-26T02:49:54.917Z,65.90
2018-04-26T02:52:21.193Z,65.94
2018-04-26T02:54:47.602Z,66.08
2018-04-26T02:57:13.911Z,66.03
2018-04-26T02:59:40.279Z,65.86
2018-04-26T03:02:06.596Z,65.91
2018-04-26T03:04:32.975Z,65.39
2018-04-26T03:06:59.355Z,65.36
2018-04-26T03:09:25.688Z,65.34
2018-04-26T03:11:51.943Z,64.70
2018-04-26T03:14:18.205Z,64.05
2018-04-26T03:16:44.455Z,64.25
2018-04-26T03:19:10.666Z,64.39
2018-04-26T03:21:36.926Z,63.97
2018-04-26T03:24:03.178Z,63.77
2018-04-26T03:26:29.519Z,64.31
2018-04-26T03:28:55.827Z,64.89
2018-04-26T03:31:22.059Z,64.85
2018-04-26T03:33:48.287Z,64.50
2018-04-26T03:36:14.562Z,64.74
2018-04-26T03:38:40.782Z,64.42
2018-04-26T03:41:06.991Z,64.90
2018-04-26T03:43:33.252Z,64.96
2018-04-26T03:45:59.502Z,65.05
2018-04-26T03:48:25.735Z,64.55
2018-04-26T03:50:52.146Z,64.95
2018-04-26T03:53:18.374Z,65.49
2018-04-26T03:55:44.622Z,65.11
2018-04-26T03:58:10.884Z,65.37
2018-04-26T04:00:49.276Z,65.38
2018-04-26T04:03:27.771Z,65.32
2018-04-26T04:19:16.720Z,65.65
2018-04-26T04:21:42.938Z,65.66
2018-04-26T04:24:09.205Z,65.69
2018-04-26T04:26:35.491Z,65.99
2018-04-26T04:29:01.720Z,66.62
2018-04-26T04:31:27.943Z,67.01
2018-04-26T04:33:54.203Z,67.22
2018-04-26T04:36:20.431Z,67.08
2018-04-26T04:38:46.659Z,68.17
2018-04-26T04:41:12.923Z,68.89
2018-04-26T04:43:39.155Z,68.92
2018-04-26T04:46:05.398Z,63.78
2018-04-26T04:48:31.696Z,64.27
2018-04-26T04:50:57.967Z,65.16
2018-04-26T04:53:24.203Z,65.72
2018-04-26T04:55:50.519Z,66.29
2018-04-26T04:58:16.747Z,65.38
2018-04-26T05:00:42.991Z,66.11
2018-04-26T05:03:09.259Z,66.24
2018-04-26T05:05:35.497Z,66.34
2018-04-26T05:08:01.735Z,65.71
2018-04-26T05:10:28.007Z,65.83
2018-04-26T05:12:54.235Z,65.35
2018-04-26T05:15:20.463Z,64.77
2018-04-26T05:17:46.726Z,64.56
2018-04-26T05:20:12.955Z,64.99
2018-04-26T05:22:39.199Z,64.53
2018-04-26T05:25:05.462Z,64.15
2018-04-26T05:27:31.700Z,63.90
2018-04-26T05:29:58.018Z,64.06
2018-04-26T05:32:24.227Z,64.29
2018-04-26T05:34:50.469Z,64.29
2018-04-26T05:37:16.692Z,64.86
2018-04-26T05:39:43.051Z,64.03
2018-04-26T05:42:09.236Z,63.92
2018-04-26T05:44:35.515Z,64.35
2018-04-26T05:47:01.783Z,64.30
2018-04-26T05:49:28.027Z,63.73
2018-04-26T05:51:54.246Z,63.42
2018-04-26T05:54:20.512Z,63.15
2018-04-26T05:56:46.744Z,62.87
2018-04-26T05:59:12.975Z,63.15
2018-04-26T06:01:39.239Z,63.15
2018-04-26T06:04:05.466Z,62.33
2018-04-26T06:06:31.691Z,62.78
2018-04-26T06:08:57.976Z,61.48
2018-04-26T06:11:24.309Z,61.92
2018-04-26T06:13:50.483Z,61.70
2018-04-26T06:16:16.736Z,62.12
2018-04-26T06:18:42.955Z,63.09
2018-04-26T06:21:09.178Z,64.01
2018-04-26T06:23:35.435Z,64.29
2018-04-26T06:26:01.659Z,64.73
2018-04-26T06:28:27.883Z,64.70
2018-04-26T06:30:54.154Z,65.04
2018-04-26T06:33:20.388Z,65.12
2018-04-26T06:35:46.658Z,64.85
2018-04-26T06:38:12.916Z,63.96
2018-04-26T06:40:39.150Z,63.95
2018-04-26T06:43:05.377Z,63.55
2018-04-26T06:45:31.631Z,61.92
2018-04-26T06:47:57.876Z,61.66
2018-04-26T06:50:24.108Z,59.98
2018-04-26T06:52:50.371Z,58.78
2018-04-26T06:55:16.595Z,57.96
2018-04-26T06:57:42.815Z,57.55
2018-04-26T07:00:09.067Z,57.41
2018-04-26T07:02:35.289Z,56.32
2018-04-26T07:05:01.600Z,53.79
2018-04-26T07:07:27.791Z,53.43
2018-04-26T07:09:54.011Z,54.24
2018-04-26T07:12:20.243Z,53.57
2018-04-26T07:14:46.503Z,53.43
2018-04-26T07:17:12.721Z,52.75
2018-04-26T07:19:38.951Z,54.56
2018-04-26T07:22:05.210Z,52.70
2018-04-26T07:24:31.431Z,51.67
2018-04-26T07:26:57.655Z,50.38
2018-04-26T07:29:23.915Z,49.24
2018-04-26T07:31:50.146Z,48.13
2018-04-26T07:34:16.379Z,47.55
2018-04-26T07:36:42.651Z,46.33
2018-04-26T07:39:08.874Z,46.16
2018-04-26T07:41:35.106Z,43.91
2018-04-26T07:44:01.372Z,44.04
2018-04-26T07:46:27.640Z,41.96
2018-04-26T07:48:53.903Z,42.94
2018-04-26T07:51:20.154Z,42.76
2018-04-26T07:53:46.383Z,44.97
2018-04-26T07:56:12.619Z,44.73
2018-04-26T07:58:38.873Z,45.31
2018-04-26T08:01:05.116Z,47.21
2018-04-26T08:03:31.339Z,47.12
2018-04-26T08:05:57.605Z,45.58
2018-04-26T08:08:23.832Z,45.63
2018-04-26T08:10:50.091Z,43.36
2018-04-26T08:13:16.351Z,40.95
2018-04-26T08:15:42.585Z,39.21
2018-04-26T08:18:08.814Z,37.13
2018-04-26T08:20:35.074Z,37.11
2018-04-26T08:23:01.295Z,36.90
2018-04-26T08:25:27.520Z,37.51
2018-04-26T08:27:53.778Z,37.41
2018-04-26T08:30:20.016Z,38.34
2018-04-26T08:32:46.251Z,39.12
2018-04-26T08:35:12.517Z,41.04
2018-04-26T08:37:38.746Z,41.53
2018-04-26T08:40:05.003Z,42.30
2018-04-26T08:42:31.262Z,42.94
2018-04-26T08:44:57.520Z,42.41
2018-04-26T08:47:23.748Z,43.56
2018-04-26T08:49:50.007Z,43.49
2018-04-26T08:52:16.312Z,42.26
2018-04-26T08:54:42.491Z,40.87
2018-04-26T08:57:08.756Z,41.36
2018-04-26T08:59:34.978Z,41.89
2018-04-26T09:02:01.229Z,42.11
2018-04-26T09:04:27.485Z,41.80
2018-04-26T09:06:53.725Z,40.22
2018-04-26T09:09:19.950Z,37.42
2018-04-26T09:11:46.207Z,36.45
2018-04-26T09:14:12.748Z,33.63
2018-04-26T09:16:46.050Z,30.98
2018-04-26T09:19:12.278Z,30.37
2018-04-26T09:21:38.506Z,29.95
2018-04-26T09:24:11.827Z,29.57
2018-04-26T09:26:38.067Z,30.31
2018-04-26T09:29:04.300Z,30.66
2018-04-26T09:31:30.568Z,30.47
2018-04-26T09:33:56.799Z,30.94
2018-04-26T09:36:23.048Z,32.08
2018-04-26T09:38:49.342Z,28.71
2018-04-26T09:41:15.605Z,27.99
2018-04-26T09:43:41.851Z,26.57
2018-04-26T09:46:15.003Z,28.87
2018-04-26T09:48:41.235Z,28.52
2018-04-26T09:51:07.504Z,27.94
2018-04-26T09:53:33.767Z,27.67
2018-04-26T09:55:59.998Z,26.50
2018-04-26T09:58:26.278Z,26.96
2018-04-26T10:00:52.619Z,24.71
2018-04-26T10:03:18.849Z,25.39
2018-04-26T10:05:51.067Z,25.78
2018-04-26T10:08:17.388Z,27.82
2018-04-26T10:10:43.598Z,29.08
2018-04-26T10:13:09.827Z,30.30
2018-04-26T10:15:36.083Z,32.36
2018-04-26T10:18:02.332Z,32.37
2018-04-26T10:20:28.554Z,31.31
2018-04-26T10:22:54.802Z,31.66
2018-04-26T10:25:21.028Z,30.95
2018-04-26T10:27:47.250Z,32.48
2018-04-26T10:30:13.511Z,31.92
2018-04-26T10:32:39.747Z,32.49
2018-04-26T10:35:05.972Z,32.73
2018-04-26T10:37:32.235Z,32.08
2018-04-26T10:39:58.486Z,30.18
2018-04-26T10:42:24.719Z,29.44
2018-04-26T10:44:50.982Z,30.15
2018-04-26T10:47:17.219Z,31.82
2018-04-26T10:49:43.447Z,31.86
2018-04-26T10:52:09.702Z,33.80
2018-04-26T10:54:35.932Z,35.10
2018-04-26T10:57:02.170Z,37.93
2018-04-26T10:59:28.419Z,41.35
2018-04-26T11:01:54.645Z,39.91
2018-04-26T11:04:20.872Z,36.48
2018-04-26T11:06:47.126Z,32.37
2018-04-26T11:09:13.422Z,29.97
2018-04-26T11:11:39.666Z,30.63
2018-04-26T11:14:05.935Z,26.85
2018-04-26T11:16:32.175Z,25.41
2018-04-26T11:18:58.411Z,27.31
2018-04-26T11:21:24.727Z,27.46
2018-04-26T11:23:50.934Z,27.26
2018-04-26T11:26:17.191Z,25.54
2018-04-26T11:28:43.461Z,26.57
2018-04-26T11:31:09.758Z,27.65
2018-04-26T11:33:35.952Z,29.54
2018-04-26T11:36:02.236Z,31.00
2018-04-26T11:38:28.500Z,30.28
2018-04-26T11:40:54.717Z,31.10
2018-04-26T11:43:20.966Z,33.00
2018-04-26T11:45:47.207Z,36.87
2018-04-26T11:48:13.436Z,40.22
2018-04-26T11:50:39.694Z,39.27
2018-04-26T11:53:05.918Z,38.52
2018-04-26T11:55:32.147Z,32.70
2018-04-26T11:57:58.398Z,29.57
2018-04-26T12:00:24.631Z,26.35
2018-04-26T12:02:50.873Z,27.28
2018-04-26T12:05:17.142Z,28.38
2018-04-26T12:07:43.416Z,28.88
2018-04-26T12:10:09.662Z,25.39
2018-04-26T12:12:35.923Z,23.51
2018-04-26T12:15:02.149Z,22.97
2018-04-26T12:17:28.371Z,21.89
2018-04-26T12:19:54.643Z,20.82
2018-04-26T12:22:20.887Z,21.22
2018-04-26T12:24:47.138Z,23.48
2018-04-26T12:27:13.394Z,24.68
2018-04-26T12:29:39.635Z,26.52
2018-04-26T12:32:05.874Z,28.70
2018-04-26T12:34:32.143Z,29.37
2018-04-26T12:36:58.414Z,29.26
2018-04-26T12:39:24.651Z,29.21
2018-04-26T12:41:50.924Z,29.01
2018-04-26T12:44:17.148Z,28.27
2018-04-26T12:46:43.374Z,26.34
2018-04-26T12:49:09.643Z,25.69
2018-04-26T12:51:35.888Z,26.06
2018-04-26T12:54:02.123Z,28.93
2018-04-26T12:56:28.391Z,28.76
2018-04-26T12:58:54.614Z,29.48
2018-04-26T13:01:20.851Z,30.27
2018-04-26T13:03:47.107Z,28.36
2018-04-26T13:06:13.330Z,29.40
2018-04-26T13:08:39.555Z,30.05
2018-04-26T13:11:05.820Z,32.57
2018-04-26T13:13:32.040Z,35.56
2018-04-26T13:15:58.269Z,38.27
2018-04-26T13:18:24.524Z,37.98
2018-04-26T13:20:50.751Z,37.92
2018-04-26T13:23:16.972Z,36.47
2018-04-26T13:25:43.246Z,31.71
2018-04-26T13:28:09.470Z,28.87
2018-04-26T13:30:35.705Z,29.15
2018-04-26T13:33:01.983Z,29.35
2018-04-26T13:35:28.219Z,27.41
2018-04-26T13:37:54.459Z,25.33
2018-04-26T13:40:20.732Z,25.21
2018-04-26T13:42:46.975Z,25.84
2018-04-26T13:45:13.216Z,26.74
2018-04-26T13:47:39.480Z,24.92
2018-04-26T13:50:05.718Z,28.17
2018-04-26T13:52:31.951Z,29.09
2018-04-26T13:54:58.224Z,26.83
2018-04-26T13:57:24.459Z,23.90
2018-04-26T13:59:50.695Z,24.52
2018-04-26T14:02:17.155Z,23.22
2018-04-26T14:04:43.406Z,21.77
2018-04-26T14:07:09.675Z,21.49
2018-04-26T14:09:35.930Z,20.26
2018-04-26T14:12:02.185Z,19.67
2018-04-26T14:14:28.406Z,20.54
2018-04-26T14:16:54.667Z,20.23
2018-04-26T14:19:20.899Z,20.90
2018-04-26T14:21:47.123Z,21.10
2018-04-26T14:24:13.378Z,19.97
2018-04-26T14:26:39.614Z,19.90
2018-04-26T14:29:05.858Z,22.99
2018-04-26T14:31:32.115Z,22.32
2018-04-26T14:33:58.342Z,23.88
2018-04-26T14:36:24.565Z,23.05
2018-04-26T14:38:50.838Z,22.25
2018-04-26T14:41:17.079Z,23.79
2018-04-26T14:43:43.314Z,22.91
2018-04-26T14:46:09.575Z,23.02
2018-04-26T14:48:35.803Z,22.53
2018-04-26T14:51:02.043Z,21.89
2018-04-26T14:53:28.303Z,21.08
2018-04-26T14:55:54.533Z,21.52
2018-04-26T14:58:20.783Z,20.41
2018-04-26T15:00:47.039Z,21.47
2018-04-26T15:03:13.267Z,20.97
2018-04-26T15:05:39.486Z,21.07
2018-04-26T15:08:05.743Z,20.21
2018-04-26T15:10:32.042Z,20.53
2018-04-26T15:12:58.644Z,19.94
2018-04-26T15:15:24.954Z,20.37
2018-04-26T15:17:51.577Z,20.26
2018-04-26T15:20:17.985Z,21.01
2018-04-26T15:22:44.539Z,21.22
2018-04-26T15:25:10.903Z,22.42
2018-04-26T15:27:37.186Z,21.14
2018-04-26T15:30:03.811Z,21.54
2018-04-26T15:32:30.092Z,21.17
2018-04-26T15:34:56.483Z,22.73
2018-04-26T15:37:22.854Z,24.22
2018-04-26T15:39:49.223Z,24.39
2018-04-26T15:42:15.577Z,26.72
2018-04-26T15:44:41.854Z,27.80
2018-04-26T15:47:08.294Z,28.79
2018-04-26T15:49:34.546Z,29.40
2018-04-26T15:52:00.810Z,28.57
2018-04-26T15:54:36.214Z,29.22
2018-04-26T15:57:25.766Z,30.57
2018-04-26T16:00:04.331Z,31.34
2018-04-26T16:02:57.762Z,32.01
2018-04-26T16:05:38.041Z,32.78
2018-04-26T16:08:22.714Z,33.04
2018-04-26T16:11:07.458Z,33.86
2018-04-26T16:13:52.132Z,35.30
2018-04-26T16:16:36.819Z,34.99
2018-04-26T16:19:26.298Z,36.74
2018-04-26T16:22:10.907Z,37.01
2018-04-26T16:24:53.647Z,37.51
2018-04-26T16:27:38.983Z,37.95
2018-04-26T16:30:17.863Z,37.25
2018-04-26T16:33:02.502Z,36.28
2018-04-26T16:35:41.158Z,37.29
2018-04-26T16:38:19.817Z,37.90
2018-04-26T16:40:46.095Z,37.93
2018-04-26T16:43:12.412Z,38.25
2018-04-26T16:45:38.753Z,37.96
2018-04-26T16:48:05.170Z,39.17
2018-04-26T16:50:31.407Z,40.35
2018-04-26T16:52:57.832Z,40.58
2018-04-26T16:55:24.118Z,40.12
2018-04-26T16:57:50.527Z,39.89
2018-04-26T17:00:16.771Z,40.63
2018-04-26T17:02:43.345Z,40.97
2018-04-26T17:05:09.606Z,41.59
2018-04-26T17:07:35.971Z,41.97
2018-04-26T17:10:02.332Z,42.04
2018-04-26T17:12:28.766Z,42.16
2018-04-26T17:14:55.119Z,42.21
2018-04-26T17:17:21.379Z,42.59
2018-04-26T17:19:47.941Z,41.34
2018-04-26T17:22:14.244Z,40.37
2018-04-26T17:24:40.631Z,40.47
2018-04-26T17:27:07.000Z,40.21
2018-04-26T17:29:33.295Z,40.55
2018-04-26T17:31:59.771Z,40.24
2018-04-26T17:34:26.003Z,41.02
2018-04-26T17:36:52.482Z,40.92
2018-04-26T17:39:18.769Z,41.38
2018-04-26T17:41:45.180Z,41.38
2018-04-26T17:44:11.470Z,41.05
2018-04-26T17:46:37.798Z,41.68
2018-04-26T17:49:04.298Z,42.18
2018-04-26T17:51:30.616Z,41.79
2018-04-26T17:53:57.129Z,42.26
2018-04-26T17:56:23.439Z,42.75
2018-04-26T17:58:49.667Z,42.69
2018-04-26T18:01:15.936Z,42.78
2018-04-26T18:03:42.187Z,43.48
2018-04-26T18:06:08.446Z,43.18
2018-04-26T18:08:34.775Z,43.70
2018-04-26T18:11:01.043Z,43.47
2018-04-26T18:13:27.284Z,43.18
2018-04-26T18:15:53.632Z,43.19
2018-04-26T18:18:19.863Z,43.28
2018-04-26T18:20:46.308Z,43.22
2018-04-26T18:23:12.634Z,43.41
2018-04-26T18:25:39.131Z,43.79
2018-04-26T18:28:05.363Z,43.64
2018-04-26T18:30:31.712Z,43.92
2018-04-26T18:32:58.011Z,43.53
2018-04-26T18:35:24.275Z,43.78
2018-04-26T18:37:50.601Z,43.56
2018-04-26T18:40:16.847Z,43.94
2018-04-26T18:42:44.346Z,44.72
2018-04-26T18:45:10.715Z,45.04
2018-04-26T18:47:37.035Z,45.69
2018-04-26T18:50:03.366Z,45.88
2018-04-26T18:52:29.634Z,45.90
2018-04-26T18:54:56.017Z,46.32
2018-04-26T18:57:22.267Z,46.36
2018-04-26T18:59:48.578Z,46.08
2018-04-26T19:02:14.807Z,46.02
2018-04-26T19:04:41.129Z,46.20
2018-04-26T19:07:07.412Z,46.71
2018-04-26T19:09:33.701Z,46.58
2018-04-26T19:12:00.015Z,46.83
2018-04-26T19:14:26.348Z,47.23
2018-04-26T19:16:52.626Z,47.56
2018-04-26T19:19:18.876Z,47.92
2018-04-26T19:21:45.225Z,48.26
2018-04-26T19:24:11.478Z,48.22
2018-04-26T19:26:38.149Z,48.17
2018-04-26T19:29:04.647Z,47.99
2018-04-26T19:31:31.221Z,47.77
2018-04-26T19:33:57.522Z,47.56
2018-04-26T19:36:23.880Z,47.48
2018-04-26T19:38:50.320Z,47.64
2018-04-26T19:41:16.605Z,47.63
2018-04-26T19:43:42.867Z,47.58
2018-04-26T19:46:09.114Z,47.48
2018-04-26T19:48:35.355Z,47.48
2018-04-26T19:51:01.622Z,47.23
2018-04-26T19:53:27.878Z,47.20
2018-04-26T19:55:54.099Z,48.23
2018-04-26T19:58:20.367Z,48.05
2018-04-26T20:00:46.610Z,48.18
2018-04-26T20:03:12.920Z,48.46
2018-04-26T20:05:39.202Z,48.61
2018-04-26T20:08:05.440Z,48.94
2018-04-26T20:10:31.782Z,48.98
2018-04-26T20:12:58.050Z,48.80
2018-04-26T20:15:24.360Z,48.86
2018-04-26T20:17:50.590Z,48.91
2018-04-26T20:20:16.854Z,49.66
2018-04-26T20:22:43.098Z,50.43
2018-04-26T20:25:09.338Z,50.14
2018-04-26T20:27:35.615Z,50.45
2018-04-26T20:30:01.899Z,51.19
2018-04-26T20:32:28.139Z,51.31
2018-04-26T20:34:54.695Z,51.76
2018-04-26T20:37:21.151Z,52.20
2018-04-26T20:39:47.433Z,52.18
2018-04-26T20:42:13.899Z,52.86
2018-04-26T20:44:47.314Z,53.27
2018-04-26T20:47:13.639Z,53.72
2018-04-26T20:49:39.877Z,53.90
2018-04-26T20:52:06.311Z,53.83
2018-04-26T20:54:32.702Z,53.64
2018-04-26T20:56:58.986Z,53.11
2018-04-26T20:59:25.393Z,53.82
2018-04-26T21:01:51.711Z,54.04
2018-04-26T21:04:17.998Z,54.30
2018-04-26T21:06:44.672Z,54.58
2018-04-26T21:09:11.015Z,54.68
2018-04-26T21:11:37.259Z,54.85
2018-04-26T21:14:03.544Z,54.96
2018-04-26T21:16:30.042Z,54.94
2018-04-26T21:18:56.293Z,55.02
2018-04-26T21:21:22.538Z,55.26
2018-04-26T21:23:48.846Z,55.08
2018-04-26T21:26:15.159Z,55.42
2018-04-26T21:28:41.488Z,54.96
2018-04-26T21:31:07.717Z,55.30
2018-04-26T21:33:33.985Z,55.58
2018-04-26T21:36:00.239Z,55.77
2018-04-26T21:38:26.504Z,55.95
2018-04-26T21:40:52.903Z,56.17
2018-04-26T21:43:19.151Z,56.35
2018-04-26T21:45:45.506Z,56.32
2018-04-26T21:48:11.775Z,56.35
2018-04-26T21:50:44.239Z,56.54
2018-04-26T21:53:16.482Z,56.56
2018-04-26T21:55:48.971Z,56.71
2018-04-26T21:58:21.267Z,57.19
2018-04-26T22:00:53.518Z,57.38
2018-04-26T22:16:37.607Z,57.87
2018-04-26T22:19:03.846Z,58.12
2018-04-26T22:21:30.082Z,58.06
2018-04-26T22:23:56.339Z,57.88
2018-04-26T22:26:22.611Z,58.02
2018-04-26T22:28:48.867Z,58.15
2018-04-26T22:31:15.168Z,58.12
2018-04-26T22:33:41.395Z,58.42
2018-04-26T22:36:07.635Z,58.19
2018-04-26T22:38:33.907Z,58.02
2018-04-26T22:41:00.138Z,58.16
2018-04-26T22:43:26.530Z,58.14
2018-04-26T22:45:52.815Z,58.52
2018-04-26T22:48:19.042Z,58.65
2018-04-26T22:50:45.266Z,58.67
2018-04-26T22:53:11.540Z,58.46
2018-04-26T22:55:37.767Z,58.36
2018-04-26T22:58:04.024Z,58.60
2018-04-26T23:00:30.274Z,58.98
2018-04-26T23:02:56.501Z,58.73
2018-04-26T23:05:22.722Z,58.76
2018-04-26T23:07:48.971Z,58.85
2018-04-26T23:10:15.191Z,59.12
2018-04-26T23:12:41.418Z,59.17
2018-04-26T23:15:07.668Z,59.36
2018-04-26T23:17:33.898Z,58.79
2018-04-26T23:20:00.127Z,58.91
2018-04-26T23:22:26.471Z,58.90
2018-04-26T23:24:52.714Z,59.09
2018-04-26T23:27:18.936Z,58.97
2018-04-26T23:29:45.198Z,58.86
2018-04-26T23:32:11.424Z,58.66
2018-04-26T23:34:44.631Z,58.75
2018-04-26T23:37:10.854Z,58.78
2018-04-26T23:39:37.082Z,58.71
2018-04-26T23:42:03.342Z,59.00
2018-04-26T23:44:29.563Z,59.15
2018-04-26T23:46:55.794Z,58.89
2018-04-26T23:49:22.063Z,58.96
2018-04-26T23:51:48.282Z,58.75
2018-04-26T23:54:14.515Z,59.10
2018-04-26T23:56:40.795Z,58.95
2018-04-26T23:59:07.039Z,58.97
